Opelika, AL

11:05 AM CST on December 29, 2014 (GMT -0600)
Auburn-opelika-pitts | Change Station
CLOSE
Current Station
Airport
Location: Auburn,
Elevation: 774 ft
Nearby Weather Stations

Elev 774 ft 32.62 °N, 85.43 °W | Updated 10 minutes ago

Mostly Cloudy
Mostly Cloudy
61 °F
Feels Like 61 °F
N
4
Wind Variable Wind from NNE

Today
High -- | Low -- °F
--% Chance of Precip.
Yesterday
High -- | Low -- °F
Precip. -- in
6:42 AM 4:44 PM
First Quarter, 60% visible
Pressure 30.15 in
Visibility 10.0 miles
Clouds Scattered Clouds 1100 ft
Mostly Cloudy 12000 ft
Dew Point 52 °F
Humidity 72%
Rainfall 0.21 in
Snow Depth Not available.
UV 2 out of 12
Pollen .60 out of 12
Air Quality Not available.
Flu Activity Not available.
METAR KAUO 291655Z AUTO 02003KT 10SM SCT011 BKN120 16/11 A3015 RMK AO1

More Conditions Fewer Conditions

Pressure 30.15 in
Visibility 10.0 miles
Clouds Scattered Clouds 1100 ft
Mostly Cloudy 12000 ft
Dew Point 52 °F
Humidity 72%
Rainfall 0.21 in
Snow Depth Not available.
UV 2 out of 12
Pollen .60 out of 12
Air Quality Not available.
Flu Activity Not available.
METAR KAUO 291655Z AUTO 02003KT 10SM SCT011 BKN120 16/11 A3015 RMK AO1

More Conditions Fewer Conditions

10-Day Weather Forecast

Almanac

Astronomy

Dec. 29, 2014 Rise Set
Actual Time
Civil Twilight
Nautical Twilight
Astronomical Twilight
Moon
Length of Visible Light
Length of Day
Tomorrow will be .
, % of the Moon is Illuminated

Today's Extremes

State Highs State Lows

Community

WunderPhotos

Upload Photos

1,781,646 photos uploaded!

WunderBlogs® & News

Nearby

Air Quality

  Air Quality AQ Index Pollutant
Not available.

Snow Depth

Station Depth Elevation

Earthquake Activity

City Distance Mag. Time & Date
Minimum magnitude displayed is 2.5.

Coastal Water Temperatures

Place Temperature

Nearby Weather Stations